Amoret, Missouri
Current Conditions -  °F | °C
As of 2:53 PM on Monday 24 Nov 2014 (Local Time) from KOJC Reporting Station
Broken Clouds Broken Clouds  
Wind Chill: 30°   Ceiling: 3400
Heat Index: 38°   Visibility: 10mi
Dew Point: 23°   Wind: 14mph
Humidity: 55%   Direction: 280°W
Pressure: 29.84"   Gusts: 22mph
Location:  38.26°N, 94.59°W
Report Text: KOJC 242053Z 28012G19KT 10SM BKN034 03/M05 A2984 RMK AO2 SLP111 T00331050 53022
Loading
Personal Weather Stations






























Interactive Weather Map New forecast layout! Learn more

10-Day Weather Forecast

Advertisements
Track Severe Weather on mobile